createdAt,value
2018-04-18T00:00:07.598Z,17.57
2018-04-18T00:02:35.765Z,13.30
2018-04-18T00:05:03.953Z,17.23
2018-04-18T00:07:32.120Z,11.93
2018-04-18T00:10:00.313Z,10.20
2018-04-18T00:12:28.489Z,11.13
2018-04-18T00:14:57.433Z,11.33
2018-04-18T00:17:25.589Z,9.67
2018-04-18T00:19:53.765Z,10.80
2018-04-18T00:22:21.930Z,10.20
2018-04-18T00:24:50.864Z,11.17
2018-04-18T00:27:19.061Z,16.57
2018-04-18T00:29:47.231Z,12.03
2018-04-18T00:32:15.416Z,15.57
2018-04-18T00:34:43.601Z,11.30
2018-04-18T00:37:12.547Z,11.00
2018-04-18T00:39:40.732Z,11.20
2018-04-18T00:42:08.915Z,12.30
2018-04-18T00:44:37.089Z,10.87
2018-04-18T00:47:05.261Z,12.50
2018-04-18T00:49:34.206Z,11.97
2018-04-18T00:52:02.384Z,10.17
2018-04-18T00:54:30.567Z,11.57
2018-04-18T00:56:58.746Z,11.53
2018-04-18T00:59:26.923Z,10.90
2018-04-18T01:01:55.090Z,10.27
2018-04-18T01:04:23.260Z,11.57
2018-04-18T01:06:51.458Z,12.53
2018-04-18T01:09:19.637Z,11.13
2018-04-18T01:11:47.825Z,12.57
2018-04-18T01:14:16.021Z,12.27
2018-04-18T01:16:44.247Z,12.07
2018-04-18T01:19:12.472Z,10.37
2018-04-18T01:21:40.650Z,12.07
2018-04-18T01:24:08.829Z,11.57
2018-04-18T01:26:37.771Z,13.87
2018-04-18T01:29:05.984Z,12.57
2018-04-18T01:31:34.156Z,12.50
2018-04-18T01:34:03.113Z,13.77
2018-04-18T01:36:31.321Z,14.37
2018-04-18T01:38:59.489Z,11.90
2018-04-18T01:41:27.663Z,10.63
2018-04-18T01:43:55.912Z,11.70
2018-04-18T01:46:24.097Z,11.33
2018-04-18T01:48:52.317Z,12.90
2018-04-18T01:51:21.263Z,12.17
2018-04-18T01:53:49.432Z,12.63
2018-04-18T01:56:17.605Z,12.63
2018-04-18T01:58:45.801Z,13.87
2018-04-18T02:01:14.228Z,13.53
2018-04-18T02:03:43.177Z,11.90
2018-04-18T02:06:11.349Z,12.60
2018-04-18T02:08:39.578Z,13.67
2018-04-18T02:11:07.753Z,12.43
2018-04-18T02:13:35.928Z,13.07
2018-04-18T02:16:04.114Z,11.73
2018-04-18T02:18:32.295Z,11.30
2018-04-18T02:21:00.473Z,12.13
2018-04-18T02:23:28.671Z,11.90
2018-04-18T02:25:56.852Z,12.10
2018-04-18T02:28:25.054Z,12.30
2018-04-18T02:30:54.020Z,12.50
2018-04-18T02:33:22.197Z,13.53
2018-04-18T02:35:50.401Z,12.80
2018-04-18T02:38:19.381Z,12.77
2018-04-18T02:40:47.560Z,12.37
2018-04-18T02:43:15.730Z,12.03
2018-04-18T02:45:44.662Z,12.97
2018-04-18T02:48:12.849Z,12.83
2018-04-18T02:50:41.053Z,13.63
2018-04-18T02:53:09.220Z,12.77
2018-04-18T02:55:37.388Z,14.10
2018-04-18T02:58:05.568Z,13.80
2018-04-18T03:00:33.750Z,13.50
2018-04-18T03:03:01.921Z,13.03
2018-04-18T03:05:30.095Z,13.23
2018-04-18T03:07:58.285Z,13.57
2018-04-18T03:10:26.480Z,13.90
2018-04-18T03:12:55.418Z,15.33
2018-04-18T03:15:23.591Z,13.97
2018-04-18T03:17:51.788Z,14.80
2018-04-18T03:20:19.985Z,14.30
2018-04-18T03:22:48.166Z,14.17
2018-04-18T03:25:17.105Z,13.00
2018-04-18T03:27:45.282Z,14.87
2018-04-18T03:30:13.456Z,14.40
2018-04-18T03:32:41.628Z,15.10
2018-04-18T03:35:09.801Z,14.20
2018-04-18T03:37:38.005Z,12.10
2018-04-18T03:40:06.182Z,14.07
2018-04-18T03:42:34.360Z,13.70
2018-04-18T03:45:02.577Z,14.20
2018-04-18T03:47:30.732Z,13.17
2018-04-18T03:49:59.690Z,15.43
2018-04-18T03:52:27.865Z,12.90
2018-04-18T03:54:56.035Z,14.63
2018-04-18T03:57:24.205Z,13.67
2018-04-18T03:59:52.377Z,13.60
2018-04-18T04:02:20.562Z,12.90
2018-04-18T04:04:48.773Z,14.20
2018-04-18T04:07:17.715Z,14.77
2018-04-18T04:09:45.890Z,12.93
2018-04-18T04:12:14.061Z,13.90
2018-04-18T04:14:42.253Z,14.10
2018-04-18T04:17:28.279Z,12.37
2018-04-18T04:20:15.025Z,12.20
2018-04-18T04:23:01.158Z,12.57
2018-04-18T04:25:29.337Z,13.70
2018-04-18T04:27:57.538Z,13.50
2018-04-18T04:30:26.589Z,13.03
2018-04-18T04:32:54.788Z,12.50
2018-04-18T04:35:23.004Z,14.40
2018-04-18T04:37:51.204Z,15.43
2018-04-18T04:40:19.395Z,12.73
2018-04-18T04:42:47.606Z,13.43
2018-04-18T04:45:16.557Z,14.50
2018-04-18T04:47:44.724Z,16.20
2018-04-18T04:50:12.897Z,15.20
2018-04-18T04:52:41.084Z,14.30
2018-04-18T04:55:09.268Z,17.60
2018-04-18T04:57:37.445Z,15.30
2018-04-18T05:00:05.625Z,14.20
2018-04-18T05:02:33.816Z,19.40
2018-04-18T05:05:02.761Z,18.80
2018-04-18T05:07:30.954Z,17.00
2018-04-18T05:09:59.128Z,14.07
2018-04-18T05:12:27.308Z,17.30
2018-04-18T05:14:55.482Z,26.00
2018-04-18T05:17:23.678Z,17.17
2018-04-18T05:19:51.864Z,20.23
2018-04-18T05:22:20.820Z,16.20
2018-04-18T05:24:48.999Z,16.53
2018-04-18T05:27:17.173Z,16.10
2018-04-18T05:29:45.357Z,15.30
2018-04-18T05:32:13.557Z,16.40
2018-04-18T05:34:42.497Z,15.13
2018-04-18T05:37:10.670Z,16.10
2018-04-18T05:39:38.853Z,21.40
2018-04-18T05:42:07.225Z,15.90
2018-04-18T05:44:35.408Z,16.27
2018-04-18T05:47:03.577Z,16.83
2018-04-18T05:49:31.783Z,14.97
2018-04-18T05:51:59.965Z,18.70
2018-04-18T05:54:28.152Z,16.87
2018-04-18T05:56:57.091Z,14.93
2018-04-18T05:59:25.314Z,16.13
2018-04-18T06:01:53.489Z,17.27
2018-04-18T06:04:21.676Z,16.40
2018-04-18T06:06:50.653Z,16.77
2018-04-18T06:09:18.832Z,16.80
2018-04-18T06:11:47.812Z,20.03
2018-04-18T06:14:15.984Z,25.37
2018-04-18T06:16:45.681Z,18.00
2018-04-18T06:19:13.941Z,16.20
2018-04-18T06:21:42.837Z,15.40
2018-04-18T06:24:11.030Z,16.23
2018-04-18T06:26:39.995Z,16.53
2018-04-18T06:29:08.174Z,18.50
2018-04-18T06:31:36.344Z,16.70
2018-04-18T06:34:04.532Z,16.77
2018-04-18T06:36:32.724Z,16.47
2018-04-18T06:39:00.893Z,16.07
2018-04-18T06:41:29.084Z,20.77
2018-04-18T06:43:57.253Z,17.60
2018-04-18T06:46:26.193Z,16.97
2018-04-18T06:48:54.366Z,17.10
2018-04-18T06:51:22.534Z,16.50
2018-04-18T06:53:50.713Z,17.33
2018-04-18T06:56:19.010Z,21.40
2018-04-18T06:58:47.209Z,18.03
2018-04-18T07:01:15.376Z,21.27
2018-04-18T07:03:43.552Z,19.60
2018-04-18T07:06:11.750Z,19.30
2018-04-18T07:08:39.939Z,20.43
2018-04-18T07:11:08.957Z,19.03
2018-04-18T07:13:37.913Z,20.10
2018-04-18T07:16:06.102Z,20.87
2018-04-18T07:18:35.044Z,20.67
2018-04-18T07:21:03.230Z,20.13
2018-04-18T07:23:31.412Z,19.23
2018-04-18T07:25:59.581Z,19.30
2018-04-18T07:28:27.777Z,20.10
2018-04-18T07:30:55.958Z,22.60
2018-04-18T07:33:24.154Z,21.20
2018-04-18T07:35:53.105Z,17.77
2018-04-18T07:38:21.302Z,20.50
2018-04-18T07:40:50.253Z,20.10
2018-04-18T07:43:18.433Z,20.20
2018-04-18T07:45:46.701Z,19.70
2018-04-18T07:48:14.908Z,20.40
2018-04-18T07:50:43.081Z,21.57
2018-04-18T07:53:11.291Z,20.40
2018-04-18T07:55:40.244Z,18.80
2018-04-18T07:58:08.446Z,23.13
2018-04-18T08:00:37.397Z,17.87
2018-04-18T08:03:05.570Z,19.13
2018-04-18T08:05:33.746Z,16.73
2018-04-18T08:08:01.921Z,16.10
2018-04-18T08:10:30.185Z,16.57
2018-04-18T08:12:58.408Z,17.73
2018-04-18T08:15:26.694Z,16.67
2018-04-18T08:17:55.545Z,17.20
2018-04-18T08:20:24.485Z,16.03
2018-04-18T08:22:52.697Z,17.30
2018-04-18T08:25:20.868Z,17.90
2018-04-18T08:27:57.943Z,16.63
2018-04-18T08:30:26.877Z,17.60
2018-04-18T08:32:55.045Z,16.97
2018-04-18T08:35:23.278Z,16.73
2018-04-18T08:37:51.466Z,16.47
2018-04-18T08:40:19.670Z,15.60
2018-04-18T08:42:48.617Z,16.70
2018-04-18T08:45:16.789Z,21.03
2018-04-18T08:47:44.990Z,17.57
2018-04-18T08:50:13.177Z,16.77
2018-04-18T08:52:41.368Z,15.97
2018-04-18T08:55:10.431Z,16.10
2018-04-18T08:57:38.610Z,19.40
2018-04-18T09:00:06.781Z,17.07
2018-04-18T09:02:34.962Z,14.63
2018-04-18T09:05:03.133Z,15.20
2018-04-18T09:07:31.307Z,16.57
2018-04-18T09:09:59.481Z,14.70
2018-04-18T09:12:27.665Z,13.40
2018-04-18T09:14:55.893Z,14.70
2018-04-18T09:17:24.836Z,15.50
2018-04-18T09:19:53.063Z,14.67
2018-04-18T09:22:22.022Z,14.03
2018-04-18T09:24:50.208Z,12.87
2018-04-18T09:27:18.394Z,13.13
2018-04-18T09:29:47.337Z,13.63
2018-04-18T09:32:15.519Z,13.60
2018-04-18T09:34:43.689Z,14.10
2018-04-18T09:37:11.881Z,12.57
2018-04-18T09:39:40.118Z,11.93
2018-04-18T09:42:08.266Z,11.93
2018-04-18T09:44:37.226Z,11.40
2018-04-18T09:47:05.409Z,11.20
2018-04-18T09:49:33.585Z,13.30
2018-04-18T09:52:01.759Z,12.07
2018-04-18T09:54:29.933Z,10.93
2018-04-18T09:56:58.119Z,11.63
2018-04-18T09:59:26.293Z,12.20
2018-04-18T10:01:54.485Z,10.77
2018-04-18T10:04:29.250Z,10.80
2018-04-18T10:06:57.425Z,10.07
2018-04-18T10:09:25.598Z,12.73
2018-04-18T10:11:53.772Z,11.30
2018-04-18T10:14:21.962Z,11.23
2018-04-18T10:16:50.155Z,12.63
2018-04-18T10:19:18.333Z,10.57
2018-04-18T10:21:46.502Z,11.43
2018-04-18T10:24:14.697Z,10.80
2018-04-18T10:26:42.874Z,11.03
2018-04-18T10:29:11.818Z,10.83
2018-04-18T10:31:40.008Z,11.17
2018-04-18T10:34:08.189Z,10.50
2018-04-18T10:36:36.372Z,9.90
2018-04-18T10:39:04.617Z,11.00
2018-04-18T10:41:32.891Z,9.73
2018-04-18T10:44:01.088Z,8.33
2018-04-18T10:46:29.253Z,9.13
2018-04-18T10:48:57.415Z,8.43
2018-04-18T10:51:25.587Z,8.97
2018-04-18T10:53:53.761Z,8.80
2018-04-18T10:56:21.939Z,8.77
2018-04-18T10:58:50.119Z,8.90
2018-04-18T11:01:18.305Z,8.73
2018-04-18T11:03:46.470Z,9.60
2018-04-18T11:06:14.640Z,10.87
2018-04-18T11:08:42.825Z,9.07
2018-04-18T11:11:11.049Z,8.43
2018-04-18T11:13:39.997Z,10.87
2018-04-18T11:16:08.201Z,9.67
2018-04-18T11:18:36.433Z,8.90
2018-04-18T11:21:05.338Z,9.10
2018-04-18T11:23:33.505Z,8.40
2018-04-18T11:26:01.702Z,7.97
2018-04-18T11:28:29.869Z,8.00
2018-04-18T11:30:58.098Z,7.90
2018-04-18T11:33:27.217Z,7.57
2018-04-18T11:35:55.417Z,10.33
2018-04-18T11:38:24.364Z,8.60
2018-04-18T11:40:52.535Z,8.20
2018-04-18T11:43:20.706Z,9.27
2018-04-18T11:45:49.633Z,7.97
2018-04-18T11:48:17.811Z,8.00
2018-04-18T11:50:45.989Z,8.87
2018-04-18T11:53:14.149Z,8.60
2018-04-18T11:55:42.309Z,8.67
2018-04-18T11:58:10.475Z,8.93
2018-04-18T12:00:38.718Z,7.40
2018-04-18T12:03:06.885Z,8.40
2018-04-18T12:05:35.060Z,9.23
2018-04-18T12:08:03.238Z,8.80
2018-04-18T12:10:31.408Z,7.70
2018-04-18T12:12:59.588Z,8.40
2018-04-18T12:15:27.774Z,8.47
2018-04-18T12:17:56.708Z,8.43
2018-04-18T12:20:24.906Z,9.97
2018-04-18T12:22:53.114Z,6.97
2018-04-18T12:25:21.284Z,7.57
2018-04-18T12:27:49.464Z,7.30
2018-04-18T12:30:18.398Z,7.07
2018-04-18T12:32:46.564Z,11.07
2018-04-18T12:35:14.749Z,7.33
2018-04-18T12:37:42.921Z,10.40
2018-04-18T12:40:11.205Z,8.63
2018-04-18T12:42:39.393Z,8.33
2018-04-18T12:45:07.582Z,7.50
2018-04-18T12:47:35.760Z,7.80
2018-04-18T12:50:03.937Z,8.07
2018-04-18T12:52:32.123Z,9.87
2018-04-18T12:55:00.327Z,7.80
2018-04-18T12:57:28.527Z,8.10
2018-04-18T12:59:56.691Z,9.30
2018-04-18T13:02:24.853Z,7.77
2018-04-18T13:04:53.024Z,7.40
2018-04-18T13:07:21.246Z,7.40
2018-04-18T13:09:49.408Z,9.17
2018-04-18T13:12:17.601Z,8.87
2018-04-18T13:14:45.797Z,6.67
2018-04-18T13:17:13.976Z,7.60
2018-04-18T13:19:42.918Z,8.83
2018-04-18T13:22:11.090Z,8.90
2018-04-18T13:24:39.263Z,7.77
2018-04-18T13:27:07.465Z,8.30
2018-04-18T13:29:35.665Z,8.13
2018-04-18T13:32:04.617Z,7.77
2018-04-18T13:34:32.791Z,8.60
2018-04-18T13:37:00.961Z,9.53
2018-04-18T13:39:29.124Z,8.43
2018-04-18T13:41:57.298Z,8.10
2018-04-18T13:44:25.466Z,9.33
2018-04-18T13:46:53.650Z,8.43
2018-04-18T13:49:21.845Z,7.57
2018-04-18T13:51:50.019Z,6.93
2018-04-18T13:54:18.189Z,6.57
2018-04-18T13:56:46.374Z,7.67
2018-04-18T13:59:14.553Z,8.30
2018-04-18T14:01:42.764Z,8.47
2018-04-18T14:04:11.722Z,8.50
2018-04-18T14:06:39.928Z,7.10
2018-04-18T14:09:08.874Z,8.50
2018-04-18T14:11:37.062Z,7.90
2018-04-18T14:14:05.253Z,7.30
2018-04-18T14:16:33.422Z,7.00
2018-04-18T14:19:01.611Z,8.50
2018-04-18T14:21:29.827Z,8.20
2018-04-18T14:23:58.384Z,8.43
2018-04-18T14:26:27.325Z,8.77
2018-04-18T14:28:55.498Z,8.23
2018-04-18T14:31:23.769Z,8.10
2018-04-18T14:33:51.968Z,7.93
2018-04-18T14:36:22.195Z,7.37
2018-04-18T14:38:50.358Z,9.40
2018-04-18T14:41:18.557Z,6.90
2018-04-18T14:43:46.789Z,6.70
2018-04-18T14:46:14.956Z,7.43
2018-04-18T14:48:43.155Z,7.10
2018-04-18T14:51:11.328Z,7.83
2018-04-18T14:53:39.540Z,7.30
2018-04-18T14:56:08.480Z,7.93
2018-04-18T14:58:36.661Z,7.17
2018-04-18T15:01:04.853Z,8.20
2018-04-18T15:03:33.900Z,7.23
2018-04-18T15:06:02.076Z,7.17
2018-04-18T15:08:30.247Z,6.70
2018-04-18T15:10:59.066Z,6.23
2018-04-18T15:13:27.241Z,6.10
2018-04-18T15:15:55.418Z,6.87
2018-04-18T15:18:24.046Z,7.40
2018-04-18T15:20:53.029Z,5.77
2018-04-18T15:23:21.976Z,6.87
2018-04-18T15:25:50.140Z,6.40
2018-04-18T15:28:18.474Z,7.10
2018-04-18T15:30:46.789Z,6.63
2018-04-18T15:33:14.971Z,6.87
2018-04-18T15:35:43.213Z,6.00
2018-04-18T15:38:11.389Z,5.77
2018-04-18T15:40:40.354Z,6.17
2018-04-18T15:43:08.559Z,7.30
2018-04-18T15:45:37.501Z,6.40
2018-04-18T15:48:06.023Z,6.57
2018-04-18T15:50:35.011Z,6.57
2018-04-18T15:53:03.185Z,6.03
2018-04-18T15:55:31.406Z,6.10
2018-04-18T15:57:59.581Z,6.10
2018-04-18T16:00:27.761Z,6.70
2018-04-18T16:02:56.686Z,9.47
2018-04-18T16:05:25.133Z,7.10
2018-04-18T16:07:53.310Z,9.63
2018-04-18T16:10:21.520Z,6.03
2018-04-18T16:12:49.722Z,6.10
2018-04-18T16:15:18.665Z,6.33
2018-04-18T16:17:47.096Z,5.63
2018-04-18T16:20:15.463Z,7.97
2018-04-18T16:22:44.404Z,5.60
2018-04-18T16:25:12.608Z,6.00
2018-04-18T16:27:40.784Z,5.20
2018-04-18T16:30:26.970Z,7.60
2018-04-18T16:32:55.161Z,5.97
2018-04-18T16:35:23.383Z,5.23
2018-04-18T16:37:52.364Z,19.40
2018-04-18T16:40:21.309Z,5.20
2018-04-18T16:42:49.498Z,7.03
2018-04-18T16:45:17.739Z,5.53
2018-04-18T16:47:45.912Z,6.30
2018-04-18T16:50:14.093Z,6.70
2018-04-18T16:52:42.339Z,4.50
2018-04-18T16:55:11.271Z,9.80
2018-04-18T16:57:39.441Z,5.17
2018-04-18T17:00:07.630Z,4.77
2018-04-18T17:02:35.843Z,7.00
2018-04-18T17:05:04.014Z,5.23
2018-04-18T17:07:32.207Z,4.77
2018-04-18T17:10:01.154Z,9.93
2018-04-18T17:12:29.317Z,4.90
2018-04-18T17:14:57.487Z,6.60
2018-04-18T17:17:25.701Z,4.50
2018-04-18T17:19:53.881Z,6.03
2018-04-18T17:22:22.065Z,9.43
2018-04-18T17:24:51.080Z,5.30
2018-04-18T17:27:19.272Z,5.70
2018-04-18T17:29:47.482Z,5.53
2018-04-18T17:32:15.665Z,5.93
2018-04-18T17:34:43.917Z,5.50
2018-04-18T17:37:12.090Z,5.80
2018-04-18T17:39:40.284Z,5.53
2018-04-18T17:42:08.557Z,6.60
2018-04-18T17:44:36.743Z,9.43
2018-04-18T17:47:04.940Z,6.07
2018-04-18T17:49:33.889Z,5.00
2018-04-18T17:52:02.061Z,5.67
2018-04-18T17:54:30.246Z,7.07
2018-04-18T17:56:58.445Z,4.67
2018-04-18T17:59:27.425Z,5.10
2018-04-18T18:01:55.596Z,8.40
2018-04-18T18:04:23.783Z,9.83
2018-04-18T18:06:51.994Z,12.10
2018-04-18T18:09:20.291Z,16.90
2018-04-18T18:11:48.462Z,10.07
2018-04-18T18:14:16.636Z,8.17
2018-04-18T18:16:44.813Z,8.37
2018-04-18T18:19:12.988Z,9.13
2018-04-18T18:21:41.204Z,8.87
2018-04-18T18:24:09.389Z,8.20
2018-04-18T18:26:38.788Z,7.30
2018-04-18T18:29:06.961Z,6.70
2018-04-18T18:31:35.143Z,9.53
2018-04-18T18:34:04.104Z,6.33
2018-04-18T18:36:32.320Z,7.27
2018-04-18T18:39:01.279Z,7.10
2018-04-18T18:41:29.457Z,9.13
2018-04-18T18:43:57.670Z,7.80
2018-04-18T18:46:27.065Z,8.10
2018-04-18T18:48:56.052Z,6.70
2018-04-18T18:51:25.595Z,10.53
2018-04-18T18:53:53.786Z,16.57
2018-04-18T18:56:21.966Z,10.63
2018-04-18T18:58:50.145Z,10.60
2018-04-18T19:01:18.369Z,7.40
2018-04-18T19:03:47.400Z,6.83
2018-04-18T19:06:16.315Z,6.97
2018-04-18T19:08:44.549Z,6.80
2018-04-18T19:11:12.794Z,7.43
2018-04-18T19:13:41.019Z,7.50
2018-04-18T19:16:09.246Z,7.40
2018-04-18T19:18:38.207Z,6.90
2018-04-18T19:21:06.398Z,6.53
2018-04-18T19:23:34.574Z,8.43
2018-04-18T19:26:02.749Z,8.33
2018-04-18T19:28:30.956Z,7.33
2018-04-18T19:30:59.897Z,8.90
2018-04-18T19:33:28.074Z,7.37
2018-04-18T19:35:56.295Z,7.37
2018-04-18T19:38:25.229Z,7.37
2018-04-18T19:40:53.575Z,8.00
2018-04-18T19:43:21.749Z,9.10
2018-04-18T19:45:50.706Z,18.03
2018-04-18T19:48:18.943Z,20.13
2018-04-18T19:50:47.147Z,18.23
2018-04-18T19:53:15.379Z,11.70
2018-04-18T19:55:43.578Z,12.07
2018-04-18T19:58:11.790Z,8.57
2018-04-18T20:00:39.981Z,11.33
2018-04-18T20:03:08.188Z,9.77
2018-04-18T20:05:36.411Z,9.03
2018-04-18T20:08:04.593Z,8.90
2018-04-18T20:10:32.765Z,9.43
2018-04-18T20:13:00.944Z,9.53
2018-04-18T20:15:29.121Z,7.53
2018-04-18T20:17:58.085Z,8.53
2018-04-18T20:20:26.265Z,9.13
2018-04-18T20:22:54.456Z,11.30
2018-04-18T20:25:22.630Z,8.67
2018-04-18T20:27:50.805Z,8.37
2018-04-18T20:30:18.981Z,10.10
2018-04-18T20:32:47.161Z,8.87
2018-04-18T20:35:16.108Z,10.90
2018-04-18T20:37:44.297Z,10.00
2018-04-18T20:40:12.468Z,10.13
2018-04-18T20:42:40.696Z,13.83
2018-04-18T20:45:09.660Z,11.03
2018-04-18T20:47:37.848Z,14.10
2018-04-18T20:50:06.797Z,8.87
2018-04-18T20:52:34.970Z,9.33
2018-04-18T20:55:03.183Z,9.97
2018-04-18T20:57:31.366Z,9.80
2018-04-18T21:00:00.306Z,9.13
2018-04-18T21:02:28.485Z,9.60
2018-04-18T21:04:56.709Z,10.00
2018-04-18T21:07:25.655Z,12.60
2018-04-18T21:09:53.871Z,8.47
2018-04-18T21:12:22.815Z,9.20
2018-04-18T21:14:50.991Z,9.97
2018-04-18T21:17:19.177Z,15.03
2018-04-18T21:19:47.363Z,13.83
2018-04-18T21:22:15.552Z,17.50
2018-04-18T21:24:43.727Z,11.90
2018-04-18T21:27:11.935Z,14.53
2018-04-18T21:29:40.883Z,10.60
2018-04-18T21:32:09.078Z,9.83
2018-04-18T21:34:38.036Z,10.10
2018-04-18T21:37:06.214Z,9.53
2018-04-18T21:39:34.391Z,11.50
2018-04-18T21:42:02.570Z,14.50
2018-04-18T21:44:30.756Z,14.97
2018-04-18T21:46:58.932Z,11.47
2018-04-18T21:49:27.109Z,10.93
2018-04-18T21:51:55.277Z,14.47
2018-04-18T21:54:23.481Z,10.80
2018-04-18T21:56:52.420Z,10.20
2018-04-18T21:59:20.589Z,12.00
2018-04-18T22:01:48.779Z,11.47
2018-04-18T22:04:16.951Z,10.53
2018-04-18T22:06:45.128Z,12.00
2018-04-18T22:09:13.319Z,8.37
2018-04-18T22:11:41.509Z,10.20
2018-04-18T22:14:09.686Z,9.23
2018-04-18T22:16:38.678Z,9.03
2018-04-18T22:19:06.823Z,10.47
2018-04-18T22:21:35.028Z,9.87
2018-04-18T22:24:03.956Z,9.77
2018-04-18T22:26:32.127Z,9.47
2018-04-18T22:29:00.317Z,9.57
2018-04-18T22:31:28.505Z,10.00
2018-04-18T22:33:56.669Z,9.70
2018-04-18T22:36:24.830Z,8.97
2018-04-18T22:38:53.021Z,8.77
2018-04-18T22:41:21.203Z,12.73
2018-04-18T22:43:49.373Z,10.63
2018-04-18T22:46:17.541Z,10.80
2018-04-18T22:48:45.747Z,9.90
2018-04-18T22:51:13.918Z,9.00
2018-04-18T22:53:42.087Z,8.93
2018-04-18T22:56:10.263Z,11.63
2018-04-18T22:58:38.425Z,9.50
2018-04-18T23:01:06.630Z,11.07
2018-04-18T23:03:34.797Z,8.80
2018-04-18T23:06:02.981Z,10.07
2018-04-18T23:08:31.929Z,9.23
2018-04-18T23:11:00.154Z,18.43
2018-04-18T23:13:29.102Z,17.03
2018-04-18T23:15:57.281Z,9.23
2018-04-18T23:18:25.454Z,9.90
2018-04-18T23:20:53.632Z,12.40
2018-04-18T23:23:21.805Z,11.93
2018-04-18T23:25:49.973Z,9.87
2018-04-18T23:28:18.155Z,9.70
2018-04-18T23:30:46.359Z,9.27
2018-04-18T23:33:14.531Z,9.90
2018-04-18T23:35:42.727Z,9.70
2018-04-18T23:38:11.660Z,9.60
2018-04-18T23:40:39.861Z,10.63
2018-04-18T23:43:08.033Z,9.07
2018-04-18T23:45:36.984Z,8.93
2018-04-18T23:48:05.151Z,11.13
2018-04-18T23:50:34.097Z,8.63
2018-04-18T23:53:02.267Z,11.13
2018-04-18T23:55:30.439Z,9.43
2018-04-18T23:57:58.619Z,8.50
